Latest Coastal Weather Observations for Warruwi

IDD60701

Issued at 8:45 am CST Friday 29 August 2014 (issued every 10 minutes, with the page automatically refreshed every 10 minutes)

About coastal observations | Map of coastal stations | Coastal observations for NT | Marine services | Other Formats
Station Details ID: 014401 Name: WARRUWI AIRPORT Lat: -11.65 Lon: 133.38 Height: 19.2 m
Data from the previous 72 hours. | See also: Recent months at Warruwi
Date/Time
CST
Temp

°C
Wind Pressure Rain
since 9am
mm
Weather Cloud Vis
km
Sea
Height
m
Swell
Dir
 
Speed
knots
Gust
knots
hPa Trend Height
m
Period
s
Dir
29/08:30am 23.4 SE 8 13 1015.7 - 0.0 - - - - - - -
29/08:00am 22.3 SE 9 11 1015.5 - 0.0 - - - - - - -
29/07:30am 21.6 ESE 8 13 1015.4 - 0.0 - - - - - - -
29/07:00am 20.5 ESE 7 9 1015.1 - 0.0 - - - - - - -
29/06:30am 20.6 ESE 9 12 1014.9 - 0.0 - - - - - - -
29/06:00am 21.0 ESE 9 12 1014.7 - 0.0 - - - - - - -
29/05:30am 21.3 ESE 9 12 1014.4 - 0.0 - - - - - - -
29/05:00am 21.5 ESE 9 13 1014.1 - 0.0 - - - - - - -
29/04:30am 21.8 ESE 9 13 1014.1 - 0.0 - - - - - - -
29/04:00am 22.1 ESE 9 13 1013.9 - 0.0 - - - - - - -
29/03:30am 22.4 ESE 10 14 1013.7 - 0.0 - - - - - - -
29/03:00am 22.6 ESE 10 13 1013.6 - 0.0 - - - - - - -
29/02:30am 22.8 ESE 9 13 1013.6 - 0.0 - - - - - - -
29/02:00am 22.8 ESE 9 12 1013.6 - 0.0 - - - - - - -
29/01:30am 23.3 ESE 10 15 1013.8 - 0.0 - - - - - - -
29/01:00am 23.6 ESE 12 16 1014.0 - 0.0 - - - - - - -
29/12:30am 23.7 ESE 10 15 1014.1 - 0.0 - - - - - - -
29/12:00am 24.4 ESE 11 15 1014.3 - 0.0 - - - - - - -
 
Date/Time
CST
Temp

°C
Wind Pressure Rain
since 9am
mm
Weather Cloud Vis
km
Sea
Height
m
Swell
Dir
 
Speed
knots
Gust
knots
hPa Trend Height
m
Period
s
Dir
28/11:30pm 24.6 ESE 11 16 1014.2 - 0.0 - - - - - - -
28/11:00pm 24.6 E 11 15 1014.2 - 0.0 - - - - - - -
28/10:30pm 24.5 E 9 13 1014.3 - 0.0 - - - - - - -
28/10:00pm 24.5 E 7 11 1014.1 - 0.0 - - - - - - -
28/09:30pm 24.4 E 5 9 1014.2 - 0.0 - - - - - - -
28/09:00pm 24.4 E 6 9 1014.2 - 0.0 - - - - - - -
28/08:30pm 24.4 E 5 7 1013.9 - 0.0 - - - - - - -
28/08:00pm 24.5 E 5 7 1013.7 - 0.0 - - - - - - -
28/07:30pm 24.5 E 5 7 1013.3 - 0.0 - - - - - - -
28/07:00pm 24.6 E 5 9 1013.0 - 0.0 - - - - - - -
28/06:30pm 25.1 E 6 10 1012.7 - 0.0 - - - - - - -
28/06:00pm 25.7 ENE 8 13 1012.3 - 0.0 - - - - - - -
28/05:30pm 26.5 ENE 7 13 1012.3 - 0.0 - - - - - - -
28/05:00pm 27.3 ENE 7 13 1012.1 - 0.0 - - - - - - -
28/04:30pm 27.8 ENE 9 13 1012.0 - 0.0 - - - - - - -
28/04:00pm 28.0 ENE 9 14 1012.0 - 0.0 - - - - - - -
28/03:30pm 28.2 E 9 14 1011.9 - 0.0 - - - - - - -
28/03:00pm 28.3 ENE 9 16 1012.0 - 0.0 - - - - - - -
28/02:30pm 28.1 E 11 16 1012.4 - 0.0 - - - - - - -
28/02:00pm 28.5 E 9 14 1012.7 - 0.0 - - - - - - -
28/01:30pm 27.6 E 10 16 1013.1 - 0.0 - - - - - - -
28/01:00pm 27.4 E 9 13 1013.7 - 0.0 - - - - - - -
28/12:30pm 27.7 E 11 15 1014.2 - 0.0 - - - - - - -
28/12:00pm 28.9 E 12 16 1014.5 - 0.0 - - - - - - -
28/11:30am 29.0 E 14 20 1014.8 - 0.0 - - - - - - -
28/11:00am 27.3 E 11 15 1015.0 - 0.0 - - - - - - -
28/10:30am 27.1 ESE 14 18 1015.2 - 0.0 - - - - - - -
28/10:00am 25.6 ESE 13 18 1015.2 - 0.0 - - - - - - -
28/09:30am 24.9 ESE 13 18 1015.3 - 0.0 - - - - - - -
28/09:00am 24.2 ESE 12 18 1015.0 - 0.0 - - - - - - -
28/08:30am 23.1 SE 13 17 1015.0 - 0.0 - - - - - - -
28/08:00am 22.0 SE 12 16 1015.0 - 0.0 - - - - - - -
28/07:30am 21.2 SE 9 14 1015.0 - 0.0 - - - - - - -
28/07:00am 20.7 SE 10 14 1014.9 - 0.0 - - - - - - -
28/06:30am 20.5 SE 10 14 1014.5 - 0.0 - - - - - - -
28/06:00am 20.8 SE 10 14 1014.3 - 0.0 - - - - - - -
28/05:30am 21.1 SE 10 14 1014.1 - 0.0 - - - - - - -
28/05:00am 21.2 SE 9 14 1013.8 - 0.0 - - - - - - -
28/04:30am 21.8 SE 10 15 1013.9 - 0.0 - - - - - - -
28/04:00am 22.2 SE 9 14 1013.9 - 0.0 - - - - - - -
28/03:30am 22.6 ESE 9 14 1014.0 - 0.0 - - - - - - -
28/03:00am 22.9 ESE 10 14 1013.9 - 0.0 - - - - - - -
28/02:30am 22.9 ESE 8 12 1013.9 - 0.0 - - - - - - -
28/02:00am 23.1 ESE 8 12 1014.1 - 0.0 - - - - - - -
28/01:30am 23.6 ESE 11 17 1014.3 - 0.0 - - - - - - -
28/01:00am 23.7 ESE 10 14 1014.6 - 0.0 - - - - - - -
28/12:30am 24.2 ESE 12 18 1014.7 - 0.0 - - - - - - -
28/12:00am 24.3 ESE 10 14 1014.9 - 0.0 - - - - - - -
 
Date/Time
CST
Temp

°C
Wind Pressure Rain
since 9am
mm
Weather Cloud Vis
km
Sea
Height
m
Swell
Dir
 
Speed
knots
Gust
knots
hPa Trend Height
m
Period
s
Dir
27/11:30pm 24.4 ESE 9 13 1014.9 - 0.0 - - - - - - -
27/11:00pm 24.4 ESE 10 12 1014.7 - 0.0 - - - - - - -
27/10:30pm 24.6 E 10 14 1014.5 - 0.0 - - - - - - -
27/10:00pm 24.8 E 10 16 1014.6 - 0.0 - - - - - - -
27/09:30pm 24.9 E 8 13 1014.3 - 0.0 - - - - - - -
27/09:00pm 24.9 E 6 10 1014.1 - 0.0 - - - - - - -
27/08:30pm 24.6 E 4 8 1013.6 - 0.0 - - - - - - -
27/08:00pm 24.5 ENE 4 8 1013.3 - 0.0 - - - - - - -
27/07:30pm 24.6 ENE 4 8 1013.1 - 0.0 - - - - - - -
27/07:00pm 24.8 ENE 5 8 1012.6 - 0.0 - - - - - - -
27/06:30pm 25.1 ENE 5 8 1012.2 - 0.0 - - - - - - -
27/06:00pm 25.7 ENE 5 9 1011.9 - 0.0 - - - - - - -
27/05:30pm 26.4 NE 6 11 1011.6 - 0.0 - - - - - - -
27/05:00pm 27.0 NE 7 12 1011.4 - 0.0 - - - - - - -
27/04:30pm 28.1 NE 7 11 1011.4 - 0.0 - - - - - - -
27/04:00pm 28.6 NE 7 12 1011.3 - 0.0 - - - - - - -
27/03:30pm 29.1 ENE 9 16 1011.3 - 0.0 - - - - - - -
27/03:00pm 29.2 E 10 15 1011.5 - 0.0 - - - - - - -
27/02:30pm 29.1 E 10 16 1011.8 - 0.0 - - - - - - -
27/02:00pm 28.2 E 11 17 1012.3 - 0.0 - - - - - - -
27/01:30pm 28.1 E 9 13 1012.6 - 0.0 - - - - - - -
27/01:00pm 27.3 E 10 14 1013.1 - 0.0 - - - - - - -
27/12:30pm 27.7 E 9 14 1013.4 - 0.0 - - - - - - -
27/12:00pm 26.9 E 9 14 1013.7 - 0.0 - - - - - - -
27/11:30am 26.1 E 10 13 1014.1 - 0.0 - - - - - - -
27/11:00am 26.5 E 13 17 1014.4 - 0.0 - - - - - - -
27/10:30am 25.5 E 10 15 1014.8 - 0.0 - - - - - - -
27/10:00am 25.4 E 11 16 1014.7 - 0.0 - - - - - - -
27/09:30am 25.1 ESE 9 12 1014.7 - 0.0 - - - - - - -
27/09:00am 23.9 SE 8 12 1014.9 - 0.0 - - - - - - -
27/08:30am 22.6 SE 8 11 1014.7 - 0.0 - - - - - - -
27/08:00am 22.2 ESE 9 11 1014.5 - 0.0 - - - - - - -
27/07:30am 21.8 ESE 9 11 1014.2 - 0.0 - - - - - - -
27/07:00am 21.2 ESE 8 10 1014.1 - 0.0 - - - - - - -
27/06:30am 21.0 ESE 8 11 1013.9 - 0.0 - - - - - - -
27/06:00am 21.3 ESE 9 12 1013.6 - 0.0 - - - - - - -
27/05:30am 21.4 ESE 11 14 1013.6 - 0.0 - - - - - - -
27/05:00am 21.7 ESE 14 20 1013.3 - 0.0 - - - - - - -
27/04:30am 22.0 ESE 13 18 1013.1 - 0.0 - - - - - - -
27/04:00am 22.3 ESE 13 21 1013.0 - 0.0 - - - - - - -
27/03:30am 22.7 ESE 11 16 1013.2 - 0.0 - - - - - - -
27/03:00am 22.9 ESE 11 18 1013.1 - 0.0 - - - - - - -
27/02:30am 23.2 ESE 10 15 1013.3 - 0.0 - - - - - - -
27/02:00am 23.6 ESE 11 18 1013.5 - 0.0 - - - - - - -
27/01:30am 24.1 ESE 11 15 1013.7 - 0.0 - - - - - - -
27/01:00am 24.2 ESE 10 13 1014.0 - 0.0 - - - - - - -
27/12:30am 23.9 ESE 7 9 1014.0 - 0.0 - - - - - - -
27/12:00am 23.8 ESE 6 9 1014.1 - 0.0 - - - - - - -
 
Date/Time
CST
Temp

°C
Wind Pressure Rain
since 9am
mm
Weather Cloud Vis
km
Sea
Height
m
Swell
Dir
 
Speed
knots
Gust
knots
hPa Trend Height
m
Period
s
Dir
26/11:30pm 24.1 ESE 6 8 1013.9 - 0.0 - - - - - - -
26/11:00pm 24.1 E 5 8 1014.0 - 0.0 - - - - - - -
26/10:30pm 23.7 E 3 5 1013.8 - 0.0 - - - - - - -
26/10:00pm 23.9 E 3 5 1013.7 - 0.0 - - - - - - -
26/09:30pm 23.8 E 4 5 1013.4 - 0.0 - - - - - - -
26/09:00pm 23.7 E 3 4 1013.2 - 0.0 - - - - - - -
26/08:30pm 23.9 ENE 3 5 1012.8 - 0.0 - - - - - - -
26/08:00pm 24.2 E 3 5 1012.4 - 0.0 - - - - - - -
26/07:30pm 24.6 ENE 3 5 1012.1 - 0.0 - - - - - - -
26/07:00pm 25.0 NE 3 4 1011.7 - 0.0 - - - - - - -
26/06:30pm 25.7 NE 3 6 1011.4 - 0.0 - - - - - - -
26/06:00pm 26.9 ENE 5 8 1011.2 - 0.0 - - - - - - -
26/05:30pm 28.0 ENE 7 11 1010.8 - 0.0 - - - - - - -
26/05:00pm 28.4 ENE 8 12 1010.9 - 0.0 - - - - - - -
26/04:30pm 28.8 ENE 8 13 1011.0 - 0.0 - - - - - - -
26/04:00pm 29.4 ENE 9 14 1011.1 - 0.0 - - - - - - -
26/03:30pm 29.8 ENE 9 13 1011.4 - 0.0 - - - - - - -
26/03:00pm 29.8 E 10 16 1011.6 - 0.0 - - - - - - -
26/02:30pm 29.8 E 9 14 1011.9 - 0.0 - - - - - - -
26/02:00pm 28.8 ENE 9 14 1012.3 - 0.0 - - - - - - -
26/01:30pm 29.6 E 11 15 1012.7 - 0.0 - - - - - - -
26/01:00pm 29.6 E 9 14 1012.9 - 0.0 - - - - - - -
26/12:30pm 30.0 ESE 12 17 1013.4 - 0.0 - - - - - - -
26/12:00pm 30.3 ESE 12 19 1013.9 - 0.0 - - - - - - -
26/11:30am 29.5 ESE 13 19 1014.2 - 0.0 - - - - - - -
26/11:00am 28.9 ESE 13 19 1014.7 - 0.0 - - - - - - -
26/10:30am 28.4 ESE 13 18 1015.1 - 0.0 - - - - - - -
26/10:00am 26.8 ESE 13 20 1015.3 - 0.0 - - - - - - -
26/09:30am 25.4 ESE 11 16 1015.5 - 0.0 - - - - - - -
26/09:00am 24.6 SE 10 14 1015.3 - 0.0 - - - - - - -

Other Formats:

Comma delimited format used in spreadsheet applications
http://www.bom.gov.au/fwo/IDD60701/IDD60701.94139.axf

JavaScript Object Notation format (JSON) in row-major order
http://www.bom.gov.au/fwo/IDD60701/IDD60701.94139.json